sensor_id;sensor_type;location;lat;lon;timestamp;pressure;altitude;pressure_sealevel;temperature;humidity
9139;BME280;4604;48.616;9.548;2023-03-23T00:02:13;96368.50;;;14.17;46.10
9139;BME280;4604;48.616;9.548;2023-03-23T00:04:40;96364.72;;;14.19;45.88
9139;BME280;4604;48.616;9.548;2023-03-23T00:07:07;96352.00;;;14.06;46.16
9139;BME280;4604;48.616;9.548;2023-03-23T00:09:34;96357.97;;;14.08;46.26
9139;BME280;4604;48.616;9.548;2023-03-23T00:12:06;96357.38;;;14.21;46.29
9139;BME280;4604;48.616;9.548;2023-03-23T00:14:34;96375.50;;;14.18;46.51
9139;BME280;4604;48.616;9.548;2023-03-23T00:17:07;96373.34;;;14.13;46.75
9139;BME280;4604;48.616;9.548;2023-03-23T00:19:35;96379.31;;;14.15;46.86
9139;BME280;4604;48.616;9.548;2023-03-23T00:22:10;96366.22;;;14.13;47.03
9139;BME280;4604;48.616;9.548;2023-03-23T00:24:37;96364.09;;;14.09;47.25
9139;BME280;4604;48.616;9.548;2023-03-23T00:27:03;96360.00;;;13.98;48.07
9139;BME280;4604;48.616;9.548;2023-03-23T00:29:30;96370.47;;;14.00;48.89
9139;BME280;4604;48.616;9.548;2023-03-23T00:31:58;96369.16;;;13.96;49.34
9139;BME280;4604;48.616;9.548;2023-03-23T00:34:25;96357.22;;;13.91;49.34
9139;BME280;4604;48.616;9.548;2023-03-23T00:36:57;96346.59;;;13.91;49.25
9139;BME280;4604;48.616;9.548;2023-03-23T00:39:25;96345.13;;;13.89;49.46
9139;BME280;4604;48.616;9.548;2023-03-23T00:41:54;96352.63;;;13.85;49.85
9139;BME280;4604;48.616;9.548;2023-03-23T00:44:26;96346.16;;;13.80;50.72
9139;BME280;4604;48.616;9.548;2023-03-23T00:46:54;96341.72;;;13.72;51.32
9139;BME280;4604;48.616;9.548;2023-03-23T00:49:24;96348.06;;;13.71;52.54
9139;BME280;4604;48.616;9.548;2023-03-23T00:51:52;96338.13;;;13.65;52.90
9139;BME280;4604;48.616;9.548;2023-03-23T00:54:20;96340.66;;;13.58;53.78
9139;BME280;4604;48.616;9.548;2023-03-23T00:56:47;96340.69;;;13.50;54.65
9139;BME280;4604;48.616;9.548;2023-03-23T00:59:13;96335.38;;;13.50;55.11
9139;BME280;4604;48.616;9.548;2023-03-23T01:01:40;96332.25;;;13.46;55.87
9139;BME280;4604;48.616;9.548;2023-03-23T01:04:07;96325.97;;;13.39;56.24
9139;BME280;4604;48.616;9.548;2023-03-23T01:06:40;96318.53;;;13.35;56.67
9139;BME280;4604;48.616;9.548;2023-03-23T01:09:10;96309.28;;;13.31;57.12
9139;BME280;4604;48.616;9.548;2023-03-23T01:11:40;96321.34;;;13.33;57.56
9139;BME280;4604;48.616;9.548;2023-03-23T01:14:06;96306.16;;;13.27;57.94
9139;BME280;4604;48.616;9.548;2023-03-23T01:16:33;96310.44;;;13.20;57.93
9139;BME280;4604;48.616;9.548;2023-03-23T01:19:00;96304.97;;;13.21;58.14
9139;BME280;4604;48.616;9.548;2023-03-23T01:21:26;96314.44;;;13.16;58.09
9139;BME280;4604;48.616;9.548;2023-03-23T01:23:54;96307.50;;;13.15;58.26
9139;BME280;4604;48.616;9.548;2023-03-23T01:26:23;96306.84;;;13.13;58.06
9139;BME280;4604;48.616;9.548;2023-03-23T01:28:50;96302.00;;;13.16;57.46
9139;BME280;4604;48.616;9.548;2023-03-23T01:31:19;96297.22;;;13.12;56.88
9139;BME280;4604;48.616;9.548;2023-03-23T01:33:46;96304.69;;;13.08;57.11
9139;BME280;4604;48.616;9.548;2023-03-23T01:36:15;96297.91;;;13.05;56.99
9139;BME280;4604;48.616;9.548;2023-03-23T01:38:44;96297.56;;;13.09;56.92
9139;BME280;4604;48.616;9.548;2023-03-23T01:41:13;96296.88;;;13.15;56.89
9139;BME280;4604;48.616;9.548;2023-03-23T01:43:54;96296.75;;;13.08;56.83
9139;BME280;4604;48.616;9.548;2023-03-23T01:46:21;96288.47;;;13.03;56.41
9139;BME280;4604;48.616;9.548;2023-03-23T01:48:48;96292.09;;;13.10;56.96
9139;BME280;4604;48.616;9.548;2023-03-23T01:51:17;96286.97;;;13.09;57.36
9139;BME280;4604;48.616;9.548;2023-03-23T01:53:46;96291.78;;;13.05;57.03
9139;BME280;4604;48.616;9.548;2023-03-23T01:56:20;96293.09;;;13.09;56.63
9139;BME280;4604;48.616;9.548;2023-03-23T01:58:50;96285.13;;;13.09;57.22
9139;BME280;4604;48.616;9.548;2023-03-23T02:01:17;96287.97;;;13.07;57.73
9139;BME280;4604;48.616;9.548;2023-03-23T02:03:47;96291.13;;;13.03;58.07
9139;BME280;4604;48.616;9.548;2023-03-23T02:06:15;96285.47;;;13.06;57.96
9139;BME280;4604;48.616;9.548;2023-03-23T02:08:42;96286.50;;;13.05;57.79
9139;BME280;4604;48.616;9.548;2023-03-23T02:11:14;96261.19;;;12.94;57.39
9139;BME280;4604;48.616;9.548;2023-03-23T02:13:43;96276.72;;;13.05;57.57
9139;BME280;4604;48.616;9.548;2023-03-23T02:16:16;96277.06;;;13.02;57.79
9139;BME280;4604;48.616;9.548;2023-03-23T02:18:57;96273.06;;;13.06;58.05
9139;BME280;4604;48.616;9.548;2023-03-23T02:24:31;96264.91;;;13.24;55.88
9139;BME280;4604;48.616;9.548;2023-03-23T02:27:02;96265.09;;;13.15;55.87
9139;BME280;4604;48.616;9.548;2023-03-23T02:29:48;96244.56;;;13.17;56.38
9139;BME280;4604;48.616;9.548;2023-03-23T02:32:32;96259.56;;;13.33;54.74
9139;BME280;4604;48.616;9.548;2023-03-23T02:35:08;96244.19;;;13.28;54.57
9139;BME280;4604;48.616;9.548;2023-03-23T02:37:40;96263.72;;;13.35;54.63
9139;BME280;4604;48.616;9.548;2023-03-23T02:40:14;96261.72;;;13.37;54.67
9139;BME280;4604;48.616;9.548;2023-03-23T02:42:46;96256.25;;;13.39;54.36
9139;BME280;4604;48.616;9.548;2023-03-23T02:45:16;96255.19;;;13.48;53.40
9139;BME280;4604;48.616;9.548;2023-03-23T02:47:44;96259.63;;;13.56;53.34
9139;BME280;4604;48.616;9.548;2023-03-23T02:50:15;96255.41;;;13.69;52.64
9139;BME280;4604;48.616;9.548;2023-03-23T02:52:44;96246.56;;;13.77;52.59
9139;BME280;4604;48.616;9.548;2023-03-23T02:55:13;96255.28;;;14.09;51.66
9139;BME280;4604;48.616;9.548;2023-03-23T02:57:41;96236.50;;;13.96;52.36
9139;BME280;4604;48.616;9.548;2023-03-23T03:00:13;96247.03;;;14.04;52.13
9139;BME280;4604;48.616;9.548;2023-03-23T03:02:43;96243.97;;;13.92;52.28
9139;BME280;4604;48.616;9.548;2023-03-23T03:05:18;96238.19;;;14.11;51.75
9139;BME280;4604;48.616;9.548;2023-03-23T03:07:57;96237.50;;;14.18;51.67
9139;BME280;4604;48.616;9.548;2023-03-23T03:10:30;96232.13;;;14.03;52.06
9139;BME280;4604;48.616;9.548;2023-03-23T03:13:04;96236.63;;;14.02;52.26
9139;BME280;4604;48.616;9.548;2023-03-23T03:15:36;96236.72;;;14.09;52.27
9139;BME280;4604;48.616;9.548;2023-03-23T03:18:09;96230.13;;;14.05;52.30
9139;BME280;4604;48.616;9.548;2023-03-23T03:20:43;96229.78;;;14.08;52.60
9139;BME280;4604;48.616;9.548;2023-03-23T03:23:11;96223.81;;;14.06;52.64
9139;BME280;4604;48.616;9.548;2023-03-23T03:25:40;96224.38;;;14.16;52.20
9139;BME280;4604;48.616;9.548;2023-03-23T03:28:13;96239.31;;;14.17;52.22
9139;BME280;4604;48.616;9.548;2023-03-23T03:30:42;96232.84;;;14.20;51.92
9139;BME280;4604;48.616;9.548;2023-03-23T03:33:10;96218.44;;;14.14;52.82
9139;BME280;4604;48.616;9.548;2023-03-23T03:35:40;96221.56;;;14.18;52.53
9139;BME280;4604;48.616;9.548;2023-03-23T03:38:09;96220.75;;;14.17;52.43
9139;BME280;4604;48.616;9.548;2023-03-23T03:40:36;96218.75;;;14.19;52.91
9139;BME280;4604;48.616;9.548;2023-03-23T03:43:04;96216.13;;;14.11;52.87
9139;BME280;4604;48.616;9.548;2023-03-23T03:45:32;96203.88;;;14.10;52.88
9139;BME280;4604;48.616;9.548;2023-03-23T03:47:59;96192.81;;;14.21;52.34
9139;BME280;4604;48.616;9.548;2023-03-23T03:50:26;96205.66;;;14.18;52.24
9139;BME280;4604;48.616;9.548;2023-03-23T03:52:54;96199.50;;;14.17;51.97
9139;BME280;4604;48.616;9.548;2023-03-23T03:55:22;96197.44;;;14.42;51.47
9139;BME280;4604;48.616;9.548;2023-03-23T03:57:49;96195.63;;;14.43;51.03
9139;BME280;4604;48.616;9.548;2023-03-23T04:00:16;96190.03;;;14.38;51.00
9139;BME280;4604;48.616;9.548;2023-03-23T04:02:45;96184.44;;;14.47;50.93
9139;BME280;4604;48.616;9.548;2023-03-23T04:05:17;96173.06;;;14.39;50.79
9139;BME280;4604;48.616;9.548;2023-03-23T04:07:45;96189.59;;;14.49;50.76
9139;BME280;4604;48.616;9.548;2023-03-23T04:10:18;96193.31;;;14.40;51.18
9139;BME280;4604;48.616;9.548;2023-03-23T04:12:46;96190.06;;;14.67;50.09
9139;BME280;4604;48.616;9.548;2023-03-23T04:15:13;96191.81;;;14.60;50.46
9139;BME280;4604;48.616;9.548;2023-03-23T04:17:40;96194.91;;;14.49;50.57
9139;BME280;4604;48.616;9.548;2023-03-23T04:20:08;96198.00;;;14.52;50.89
9139;BME280;4604;48.616;9.548;2023-03-23T04:22:43;96186.47;;;14.45;50.19
9139;BME280;4604;48.616;9.548;2023-03-23T04:25:11;96190.53;;;14.56;50.21
9139;BME280;4604;48.616;9.548;2023-03-23T04:27:41;96186.50;;;14.60;50.44
9139;BME280;4604;48.616;9.548;2023-03-23T04:30:13;96177.28;;;14.71;49.90
9139;BME280;4604;48.616;9.548;2023-03-23T04:32:39;96176.72;;;14.75;49.33
9139;BME280;4604;48.616;9.548;2023-03-23T04:35:09;96185.31;;;14.77;49.56
9139;BME280;4604;48.616;9.548;2023-03-23T04:37:36;96191.19;;;14.73;49.63
9139;BME280;4604;48.616;9.548;2023-03-23T04:40:04;96188.44;;;14.81;49.28
9139;BME280;4604;48.616;9.548;2023-03-23T04:42:37;96197.22;;;14.82;49.40
9139;BME280;4604;48.616;9.548;2023-03-23T04:45:07;96176.78;;;14.82;49.35
9139;BME280;4604;48.616;9.548;2023-03-23T04:47:36;96191.19;;;14.73;49.94
9139;BME280;4604;48.616;9.548;2023-03-23T04:50:07;96188.88;;;14.70;50.06
9139;BME280;4604;48.616;9.548;2023-03-23T04:52:35;96195.94;;;14.63;50.48
9139;BME280;4604;48.616;9.548;2023-03-23T04:55:04;96189.69;;;14.55;50.78
9139;BME280;4604;48.616;9.548;2023-03-23T04:57:30;96187.97;;;14.77;50.58
9139;BME280;4604;48.616;9.548;2023-03-23T04:59:58;96177.53;;;14.76;50.07
9139;BME280;4604;48.616;9.548;2023-03-23T05:02:26;96194.75;;;14.65;50.69
9139;BME280;4604;48.616;9.548;2023-03-23T05:04:55;96186.66;;;14.44;51.12
9139;BME280;4604;48.616;9.548;2023-03-23T05:07:22;96190.34;;;14.58;51.17
9139;BME280;4604;48.616;9.548;2023-03-23T05:09:49;96186.50;;;14.60;51.25
9139;BME280;4604;48.616;9.548;2023-03-23T05:12:16;96186.09;;;14.48;51.48
9139;BME280;4604;48.616;9.548;2023-03-23T05:14:43;96169.81;;;14.51;51.21
9139;BME280;4604;48.616;9.548;2023-03-23T05:17:09;96181.47;;;14.65;51.20
9139;BME280;4604;48.616;9.548;2023-03-23T05:19:39;96178.63;;;14.67;51.18
9139;BME280;4604;48.616;9.548;2023-03-23T05:22:09;96179.56;;;14.59;51.28
9139;BME280;4604;48.616;9.548;2023-03-23T05:24:38;96176.25;;;14.72;51.18
9139;BME280;4604;48.616;9.548;2023-03-23T05:27:04;96181.56;;;14.72;51.23
9139;BME280;4604;48.616;9.548;2023-03-23T05:29:33;96187.25;;;14.69;51.33
9139;BME280;4604;48.616;9.548;2023-03-23T05:32:01;96184.22;;;14.72;51.00
9139;BME280;4604;48.616;9.548;2023-03-23T05:34:29;96188.59;;;14.80;50.44
9139;BME280;4604;48.616;9.548;2023-03-23T05:36:59;96187.41;;;14.82;50.46
9139;BME280;4604;48.616;9.548;2023-03-23T05:39:26;96193.38;;;14.69;51.13
9139;BME280;4604;48.616;9.548;2023-03-23T05:41:53;96179.91;;;14.71;50.74
9139;BME280;4604;48.616;9.548;2023-03-23T05:44:20;96173.78;;;14.85;50.11
9139;BME280;4604;48.616;9.548;2023-03-23T05:46:47;96183.00;;;14.89;49.64
9139;BME280;4604;48.616;9.548;2023-03-23T05:49:14;96184.31;;;14.93;50.06
9139;BME280;4604;48.616;9.548;2023-03-23T05:51:42;96164.63;;;14.73;50.37
9139;BME280;4604;48.616;9.548;2023-03-23T05:54:10;96181.00;;;14.91;50.14
9139;BME280;4604;48.616;9.548;2023-03-23T05:56:37;96182.38;;;14.87;50.54
9139;BME280;4604;48.616;9.548;2023-03-23T05:59:04;96198.78;;;14.91;49.99
9139;BME280;4604;48.616;9.548;2023-03-23T06:01:31;96190.06;;;14.82;50.85
9139;BME280;4604;48.616;9.548;2023-03-23T06:03:58;96194.41;;;14.83;51.32
9139;BME280;4604;48.616;9.548;2023-03-23T06:06:25;96197.06;;;14.83;51.51
9139;BME280;4604;48.616;9.548;2023-03-23T06:08:51;96203.19;;;14.69;51.93
9139;BME280;4604;48.616;9.548;2023-03-23T06:11:20;96205.19;;;14.82;51.70
9139;BME280;4604;48.616;9.548;2023-03-23T06:13:46;96212.34;;;14.81;51.93
9139;BME280;4604;48.616;9.548;2023-03-23T06:16:13;96216.63;;;14.82;52.04
9139;BME280;4604;48.616;9.548;2023-03-23T06:18:40;96214.91;;;14.74;52.36
9139;BME280;4604;48.616;9.548;2023-03-23T06:21:08;96205.09;;;14.60;53.02
9139;BME280;4604;48.616;9.548;2023-03-23T06:23:35;96220.03;;;14.76;52.39
9139;BME280;4604;48.616;9.548;2023-03-23T06:26:04;96213.16;;;14.67;52.45
9139;BME280;4604;48.616;9.548;2023-03-23T06:28:33;96217.44;;;14.68;52.07
9139;BME280;4604;48.616;9.548;2023-03-23T06:31:01;96223.50;;;14.76;52.10
9139;BME280;4604;48.616;9.548;2023-03-23T06:33:30;96230.28;;;14.64;52.33
9139;BME280;4604;48.616;9.548;2023-03-23T06:35:56;96230.72;;;14.68;52.59
9139;BME280;4604;48.616;9.548;2023-03-23T06:38:24;96225.91;;;14.71;52.20
9139;BME280;4604;48.616;9.548;2023-03-23T06:40:51;96233.50;;;14.74;52.54
9139;BME280;4604;48.616;9.548;2023-03-23T06:43:18;96226.72;;;14.72;52.50
9139;BME280;4604;48.616;9.548;2023-03-23T06:45:47;96224.44;;;14.69;52.49
9139;BME280;4604;48.616;9.548;2023-03-23T06:48:14;96237.88;;;14.67;53.30
9139;BME280;4604;48.616;9.548;2023-03-23T06:50:45;96236.63;;;14.63;53.33
9139;BME280;4604;48.616;9.548;2023-03-23T06:53:12;96241.84;;;14.71;52.72
9139;BME280;4604;48.616;9.548;2023-03-23T06:55:39;96239.06;;;14.65;52.78
9139;BME280;4604;48.616;9.548;2023-03-23T06:58:06;96254.56;;;14.76;52.01
9139;BME280;4604;48.616;9.548;2023-03-23T07:00:33;96240.81;;;14.72;52.49
9139;BME280;4604;48.616;9.548;2023-03-23T07:03:01;96246.50;;;14.69;53.10
9139;BME280;4604;48.616;9.548;2023-03-23T07:05:29;96246.13;;;14.72;53.13
9139;BME280;4604;48.616;9.548;2023-03-23T07:07:56;96246.22;;;14.64;53.45
9139;BME280;4604;48.616;9.548;2023-03-23T07:10:22;96252.19;;;14.66;53.15
9139;BME280;4604;48.616;9.548;2023-03-23T07:12:50;96253.09;;;14.73;53.33
9139;BME280;4604;48.616;9.548;2023-03-23T07:15:16;96246.34;;;14.86;52.61
9139;BME280;4604;48.616;9.548;2023-03-23T07:17:43;96254.19;;;14.94;52.06
9139;BME280;4604;48.616;9.548;2023-03-23T07:20:12;96248.44;;;14.90;52.38
9139;BME280;4604;48.616;9.548;2023-03-23T07:22:40;96255.41;;;14.91;52.09
9139;BME280;4604;48.616;9.548;2023-03-23T07:25:07;96255.50;;;14.98;52.43
9139;BME280;4604;48.616;9.548;2023-03-23T07:27:34;96267.31;;;15.10;51.94
9139;BME280;4604;48.616;9.548;2023-03-23T07:30:01;96258.44;;;15.03;52.17
9139;BME280;4604;48.616;9.548;2023-03-23T07:32:28;96252.00;;;15.12;51.36
9139;BME280;4604;48.616;9.548;2023-03-23T07:34:54;96270.69;;;15.19;51.50
9139;BME280;4604;48.616;9.548;2023-03-23T07:37:23;96275.81;;;15.20;51.75
9139;BME280;4604;48.616;9.548;2023-03-23T07:39:50;96268.94;;;15.26;51.80
9139;BME280;4604;48.616;9.548;2023-03-23T07:42:17;96276.38;;;15.31;52.33
9139;BME280;4604;48.616;9.548;2023-03-23T07:44:44;96282.41;;;15.39;51.50
9139;BME280;4604;48.616;9.548;2023-03-23T07:47:10;96280.75;;;15.38;51.47
9139;BME280;4604;48.616;9.548;2023-03-23T07:49:37;96279.28;;;15.36;51.37
9139;BME280;4604;48.616;9.548;2023-03-23T07:52:04;96292.78;;;15.34;51.47
9139;BME280;4604;48.616;9.548;2023-03-23T07:54:32;96296.00;;;15.30;51.66
9139;BME280;4604;48.616;9.548;2023-03-23T07:56:58;96289.66;;;15.31;51.48
9139;BME280;4604;48.616;9.548;2023-03-23T07:59:25;96296.72;;;15.38;50.35
9139;BME280;4604;48.616;9.548;2023-03-23T08:01:52;96289.63;;;15.46;50.27
9139;BME280;4604;48.616;9.548;2023-03-23T08:04:18;96289.47;;;15.47;50.09
9139;BME280;4604;48.616;9.548;2023-03-23T08:06:47;96301.75;;;15.48;50.09
9139;BME280;4604;48.616;9.548;2023-03-23T08:09:13;96299.63;;;15.58;50.21
9139;BME280;4604;48.616;9.548;2023-03-23T08:11:42;96303.38;;;15.64;50.23
9139;BME280;4604;48.616;9.548;2023-03-23T08:14:09;96306.03;;;15.64;49.94
9139;BME280;4604;48.616;9.548;2023-03-23T08:16:36;96313.66;;;15.67;50.03
9139;BME280;4604;48.616;9.548;2023-03-23T08:19:03;96321.75;;;15.74;50.31
9139;BME280;4604;48.616;9.548;2023-03-23T08:21:30;96307.38;;;15.90;49.60
9139;BME280;4604;48.616;9.548;2023-03-23T08:23:57;96302.53;;;15.93;49.50
9139;BME280;4604;48.616;9.548;2023-03-23T08:26:23;96297.84;;;15.95;49.89
9139;BME280;4604;48.616;9.548;2023-03-23T08:28:52;96304.38;;;15.93;49.71
9139;BME280;4604;48.616;9.548;2023-03-23T08:31:19;96319.38;;;16.00;50.20
9139;BME280;4604;48.616;9.548;2023-03-23T08:33:46;96310.03;;;15.90;49.70
9139;BME280;4604;48.616;9.548;2023-03-23T08:36:13;96320.03;;;16.02;49.99
9139;BME280;4604;48.616;9.548;2023-03-23T08:38:39;96327.47;;;16.07;50.26
9139;BME280;4604;48.616;9.548;2023-03-23T08:41:06;96314.16;;;16.07;49.73
9139;BME280;4604;48.616;9.548;2023-03-23T08:43:34;96327.16;;;16.17;49.91
9139;BME280;4604;48.616;9.548;2023-03-23T08:46:03;96324.84;;;16.14;50.15
9139;BME280;4604;48.616;9.548;2023-03-23T08:48:34;96335.69;;;16.34;49.27
9139;BME280;4604;48.616;9.548;2023-03-23T08:51:02;96334.56;;;16.43;49.61
9139;BME280;4604;48.616;9.548;2023-03-23T08:53:29;96339.88;;;16.43;49.99
9139;BME280;4604;48.616;9.548;2023-03-23T08:55:56;96326.06;;;16.54;49.74
9139;BME280;4604;48.616;9.548;2023-03-23T08:58:29;96339.38;;;16.76;49.40
9139;BME280;4604;48.616;9.548;2023-03-23T09:00:55;96344.19;;;16.87;49.18
9139;BME280;4604;48.616;9.548;2023-03-23T09:03:23;96351.41;;;16.93;50.03
9139;BME280;4604;48.616;9.548;2023-03-23T09:05:50;96347.63;;;16.59;51.01
9139;BME280;4604;48.616;9.548;2023-03-23T09:08:18;96349.16;;;16.68;50.92
9139;BME280;4604;48.616;9.548;2023-03-23T09:10:46;96357.06;;;16.40;51.07
9139;BME280;4604;48.616;9.548;2023-03-23T09:13:14;96353.19;;;16.21;51.69
9139;BME280;4604;48.616;9.548;2023-03-23T09:15:41;96372.91;;;16.27;52.59
9139;BME280;4604;48.616;9.548;2023-03-23T09:18:07;96371.94;;;16.13;53.45
9139;BME280;4604;48.616;9.548;2023-03-23T09:20:36;96379.50;;;16.10;54.21
9139;BME280;4604;48.616;9.548;2023-03-23T09:23:03;96377.75;;;16.02;54.01
9139;BME280;4604;48.616;9.548;2023-03-23T09:25:31;96377.31;;;15.98;54.23
9139;BME280;4604;48.616;9.548;2023-03-23T09:27:58;96389.72;;;16.27;53.39
9139;BME280;4604;48.616;9.548;2023-03-23T09:30:26;96391.09;;;16.23;53.73
9139;BME280;4604;48.616;9.548;2023-03-23T09:32:54;96384.44;;;16.13;54.57
9139;BME280;4604;48.616;9.548;2023-03-23T09:35:21;96381.84;;;16.19;53.80
9139;BME280;4604;48.616;9.548;2023-03-23T09:37:51;96392.81;;;16.31;54.39
9139;BME280;4604;48.616;9.548;2023-03-23T09:40:21;96401.00;;;16.30;54.67
9139;BME280;4604;48.616;9.548;2023-03-23T09:43:02;96385.38;;;16.41;54.35
9139;BME280;4604;48.616;9.548;2023-03-23T09:45:35;96391.31;;;16.43;53.37
9139;BME280;4604;48.616;9.548;2023-03-23T09:48:26;96387.53;;;16.16;54.25
9139;BME280;4604;48.616;9.548;2023-03-23T09:51:00;96387.53;;;16.16;54.60
9139;BME280;4604;48.616;9.548;2023-03-23T09:53:36;96402.16;;;16.05;54.62
9139;BME280;4604;48.616;9.548;2023-03-23T09:56:09;96392.84;;;16.16;54.06
9139;BME280;4604;48.616;9.548;2023-03-23T09:58:43;96400.38;;;16.27;54.61
9139;BME280;4604;48.616;9.548;2023-03-23T10:01:15;96403.38;;;16.39;54.51
9139;BME280;4604;48.616;9.548;2023-03-23T10:03:45;96407.84;;;16.17;55.08
9139;BME280;4604;48.616;9.548;2023-03-23T10:06:15;96422.09;;;15.95;55.91
9139;BME280;4604;48.616;9.548;2023-03-23T10:08:47;96411.81;;;15.92;56.14
9139;BME280;4604;48.616;9.548;2023-03-23T10:11:19;96419.63;;;15.78;56.91
9139;BME280;4604;48.616;9.548;2023-03-23T10:14:09;96422.56;;;15.83;56.42
9139;BME280;4604;48.616;9.548;2023-03-23T10:16:42;96420.56;;;15.71;57.34
9139;BME280;4604;48.616;9.548;2023-03-23T10:19:20;96413.66;;;15.91;56.29
9139;BME280;4604;48.616;9.548;2023-03-23T10:21:52;96402.59;;;16.09;56.19
9139;BME280;4604;48.616;9.548;2023-03-23T10:24:27;96415.09;;;16.09;56.57
9139;BME280;4604;48.616;9.548;2023-03-23T10:27:01;96418.59;;;15.94;57.10
9139;BME280;4604;48.616;9.548;2023-03-23T10:29:34;96422.09;;;15.95;56.88
9139;BME280;4604;48.616;9.548;2023-03-23T10:32:04;96416.38;;;16.13;56.62
9139;BME280;4604;48.616;9.548;2023-03-23T10:34:41;96412.97;;;16.04;57.21
9139;BME280;4604;48.616;9.548;2023-03-23T10:37:12;96403.97;;;16.20;56.26
9139;BME280;4604;48.616;9.548;2023-03-23T10:39:47;96403.03;;;16.27;56.50
9139;BME280;4604;48.616;9.548;2023-03-23T10:42:22;96404.25;;;16.46;55.57
9139;BME280;4604;48.616;9.548;2023-03-23T10:44:50;96408.31;;;16.42;55.54
9139;BME280;4604;48.616;9.548;2023-03-23T10:47:17;96421.06;;;16.47;55.71
9139;BME280;4604;48.616;9.548;2023-03-23T10:49:48;96412.13;;;16.18;56.93
9139;BME280;4604;48.616;9.548;2023-03-23T10:52:27;96409.47;;;16.18;57.20
9139;BME280;4604;48.616;9.548;2023-03-23T10:55:00;96396.31;;;16.32;56.59
9139;BME280;4604;48.616;9.548;2023-03-23T10:57:29;96415.47;;;16.42;56.82
9139;BME280;4604;48.616;9.548;2023-03-23T11:00:01;96404.91;;;16.48;58.95
9139;BME280;4604;48.616;9.548;2023-03-23T11:02:37;96416.25;;;16.21;59.71
9139;BME280;4604;48.616;9.548;2023-03-23T11:05:13;96416.53;;;16.26;60.41
9139;BME280;4604;48.616;9.548;2023-03-23T11:07:48;96421.53;;;16.36;61.94
9139;BME280;4604;48.616;9.548;2023-03-23T11:10:21;96418.09;;;16.20;62.01
9139;BME280;4604;48.616;9.548;2023-03-23T11:12:50;96410.16;;;16.05;62.56
9139;BME280;4604;48.616;9.548;2023-03-23T11:15:26;96421.53;;;16.36;64.21
9139;BME280;4604;48.616;9.548;2023-03-23T11:17:55;96417.69;;;16.38;63.54
9139;BME280;4604;48.616;9.548;2023-03-23T11:20:24;96419.72;;;16.36;61.20
9139;BME280;4604;48.616;9.548;2023-03-23T11:22:52;96415.78;;;16.32;62.10
9139;BME280;4604;48.616;9.548;2023-03-23T11:25:20;96424.03;;;16.37;61.37
9139;BME280;4604;48.616;9.548;2023-03-23T11:27:47;96422.69;;;16.48;60.96
9139;BME280;4604;48.616;9.548;2023-03-23T11:30:21;96421.34;;;16.74;61.50
9139;BME280;4604;48.616;9.548;2023-03-23T11:32:49;96423.06;;;16.81;60.76
9139;BME280;4604;48.616;9.548;2023-03-23T11:35:20;96404.91;;;16.92;57.61
9139;BME280;4604;48.616;9.548;2023-03-23T11:37:49;96397.13;;;16.90;58.79
9139;BME280;4604;48.616;9.548;2023-03-23T11:40:20;96402.88;;;17.15;59.02
9139;BME280;4604;48.616;9.548;2023-03-23T11:42:49;96413.09;;;17.40;58.27
9139;BME280;4604;48.616;9.548;2023-03-23T11:45:21;96407.22;;;17.51;55.69
9139;BME280;4604;48.616;9.548;2023-03-23T11:47:59;96403.34;;;17.53;55.80
9139;BME280;4604;48.616;9.548;2023-03-23T11:50:30;96386.81;;;17.71;55.08
9139;BME280;4604;48.616;9.548;2023-03-23T11:53:00;96383.84;;;17.88;54.38
9139;BME280;4604;48.616;9.548;2023-03-23T11:55:34;96401.19;;;17.77;53.10
9139;BME280;4604;48.616;9.548;2023-03-23T11:58:09;96394.94;;;17.91;52.61
9139;BME280;4604;48.616;9.548;2023-03-23T12:00:42;96398.53;;;17.42;53.34
9139;BME280;4604;48.616;9.548;2023-03-23T12:03:26;96387.84;;;17.70;53.40
9139;BME280;4604;48.616;9.548;2023-03-23T12:06:02;96385.91;;;17.58;52.94
9139;BME280;4604;48.616;9.548;2023-03-23T12:08:54;96389.09;;;17.40;53.94
9139;BME280;4604;48.616;9.548;2023-03-23T12:11:31;96393.63;;;17.46;53.63
9139;BME280;4604;48.616;9.548;2023-03-23T12:14:12;96386.94;;;17.91;52.04
9139;BME280;4604;48.616;9.548;2023-03-23T12:17:12;96366.63;;;17.62;51.16
9139;BME280;4604;48.616;9.548;2023-03-23T12:19:54;96375.69;;;17.68;50.42
9139;BME280;4604;48.616;9.548;2023-03-23T12:22:32;96373.69;;;17.76;50.34
9139;BME280;4604;48.616;9.548;2023-03-23T12:25:16;96377.28;;;17.97;49.52
9139;BME280;4604;48.616;9.548;2023-03-23T12:27:51;96358.31;;;17.79;50.22
9139;BME280;4604;48.616;9.548;2023-03-23T12:30:30;96368.03;;;17.51;50.23
9139;BME280;4604;48.616;9.548;2023-03-23T12:33:13;96361.72;;;17.31;51.42
9139;BME280;4604;48.616;9.548;2023-03-23T12:35:50;96355.09;;;17.55;50.86
9139;BME280;4604;48.616;9.548;2023-03-23T12:38:36;96361.03;;;17.85;51.33
9139;BME280;4604;48.616;9.548;2023-03-23T12:41:13;96356.41;;;17.66;50.54
9139;BME280;4604;48.616;9.548;2023-03-23T12:43:51;96363.31;;;17.53;50.76
9139;BME280;4604;48.616;9.548;2023-03-23T12:46:45;96365.00;;;17.68;50.28
9139;BME280;4604;48.616;9.548;2023-03-23T12:49:18;96352.66;;;17.53;51.43
9139;BME280;4604;48.616;9.548;2023-03-23T12:51:51;96358.16;;;17.87;51.30
9139;BME280;4604;48.616;9.548;2023-03-23T12:54:23;96358.59;;;17.97;50.75
9139;BME280;4604;48.616;9.548;2023-03-23T12:56:54;96366.31;;;17.79;49.87
9139;BME280;4604;48.616;9.548;2023-03-23T12:59:28;96357.59;;;17.57;50.48
9139;BME280;4604;48.616;9.548;2023-03-23T13:02:01;96354.47;;;17.53;50.99
9139;BME280;4604;48.616;9.548;2023-03-23T13:04:36;96350.13;;;17.45;51.13
9139;BME280;4604;48.616;9.548;2023-03-23T13:07:06;96348.94;;;17.54;50.97
9139;BME280;4604;48.616;9.548;2023-03-23T13:09:43;96346.88;;;17.50;51.59
9139;BME280;4604;48.616;9.548;2023-03-23T13:12:14;96350.09;;;17.39;51.74
9139;BME280;4604;48.616;9.548;2023-03-23T13:14:50;96340.91;;;17.48;51.83
9139;BME280;4604;48.616;9.548;2023-03-23T13:17:40;96331.44;;;17.39;51.56
9139;BME280;4604;48.616;9.548;2023-03-23T13:20:33;96326.81;;;17.26;51.90
9139;BME280;4604;48.616;9.548;2023-03-23T13:23:05;96340.28;;;17.46;51.57
9139;BME280;4604;48.616;9.548;2023-03-23T13:25:45;96338.94;;;17.70;51.08
9139;BME280;4604;48.616;9.548;2023-03-23T13:28:15;96335.50;;;17.76;49.62
9139;BME280;4604;48.616;9.548;2023-03-23T13:30:57;96329.09;;;17.64;48.13
9139;BME280;4604;48.616;9.548;2023-03-23T13:33:25;96328.28;;;17.70;48.43
9139;BME280;4604;48.616;9.548;2023-03-23T13:35:55;96329.22;;;17.97;48.90
9139;BME280;4604;48.616;9.548;2023-03-23T13:38:24;96325.16;;;18.01;48.76
9139;BME280;4604;48.616;9.548;2023-03-23T13:40:52;96316.88;;;17.83;48.21
9139;BME280;4604;48.616;9.548;2023-03-23T13:43:30;96317.94;;;18.02;48.12